Time;durP1;ratioP1;P1;durP2;ratioP2;P2;SDS_P1;SDS_P2;PMS_P1;PMS_P2;Temp;Humidity;BMP_temperature;BMP_pressure;BME280_temperature;BME280_humidity;BME280_pressure;Samples;Min_cycle;Max_cycle;Signal;HPM_P1;HPM_P2
2022/07/24 00:01:45;;;;;;;22.90;16.50;;;19.80;99.90;;;;;;5029810;28;25059;-68
2022/07/24 00:04:10;;;;;;;17.98;15.90;;;19.80;99.90;;;;;;5027459;28;25051;-67
2022/07/24 00:06:36;;;;;;;22.35;16.85;;;19.90;99.90;;;;;;5028542;28;25083;-67
2022/07/24 00:09:03;;;;;;;21.33;17.13;;;19.90;99.90;;;;;;5026751;28;25144;-68
2022/07/24 00:11:29;;;;;;;22.35;15.75;;;19.90;99.90;;;;;;5028229;28;25083;-69
2022/07/24 00:13:54;;;;;;;25.80;20.52;;;20.10;99.90;;;;;;5024056;28;25101;-66
2022/07/24 00:16:20;;;;;;;25.80;20.05;;;20.10;99.90;;;;;;5028976;28;25077;-67
2022/07/24 00:18:46;;;;;;;23.60;19.58;;;20.20;99.90;;;;;;5027373;28;25110;-67
2022/07/24 00:21:11;;;;;;;23.75;17.83;;;20.20;99.90;;;;;;5021114;28;25056;-66
2022/07/24 00:23:37;;;;;;;24.52;20.63;;;20.20;99.90;;;;;;5019879;28;25071;-68
2022/07/24 00:26:03;;;;;;;26.25;21.15;;;20.10;99.90;;;;;;5026818;28;25061;-67
2022/07/24 00:28:28;;;;;;;30.45;20.30;;;19.90;99.90;;;;;;5026984;28;25070;-67
2022/07/24 00:30:54;;;;;;;25.65;20.63;;;19.90;99.90;;;;;;5027061;28;25087;-67
2022/07/24 00:33:20;;;;;;;26.55;20.83;;;19.90;99.90;;;;;;5025708;28;25073;-66
2022/07/24 00:35:45;;;;;;;30.02;21.15;;;19.90;99.90;;;;;;5034126;28;25063;-67
2022/07/24 00:38:11;;;;;;;27.70;21.35;;;20.00;99.90;;;;;;5021821;28;25060;-67
2022/07/24 00:40:37;;;;;;;27.02;20.00;;;20.00;99.90;;;;;;5040689;28;25111;-67
2022/07/24 00:43:03;;;;;;;25.92;21.88;;;20.00;99.90;;;;;;5033551;28;25060;-66
2022/07/24 00:45:29;;;;;;;26.23;20.75;;;19.80;99.90;;;;;;5025488;28;25063;-67
2022/07/24 00:47:55;;;;;;;34.50;22.05;;;19.80;99.90;;;;;;5024296;28;25063;-66
2022/07/24 00:50:20;;;;;;;31.30;22.90;;;19.70;99.90;;;;;;5025806;28;25062;-67
2022/07/24 00:52:46;;;;;;;30.10;24.02;;;19.70;99.90;;;;;;5024716;28;25047;-66
2022/07/24 00:55:12;;;;;;;36.03;25.63;;;19.70;99.90;;;;;;5028463;28;25139;-67
2022/07/24 00:57:38;;;;;;;30.65;24.08;;;19.70;99.90;;;;;;5036648;28;25057;-67
2022/07/24 01:00:06;;;;;;;33.85;24.90;;;19.70;99.90;;;;;;5025611;28;25071;-67
2022/07/24 01:02:32;;;;;;;31.75;23.77;;;19.70;99.90;;;;;;5025733;28;25088;-67
2022/07/24 01:04:58;;;;;;;35.15;24.80;;;19.70;99.90;;;;;;5028875;28;25076;-67
2022/07/24 01:07:23;;;;;;;35.30;24.83;;;19.70;99.90;;;;;;5025621;28;25074;-66
2022/07/24 01:09:50;;;;;;;40.60;27.63;;;19.70;99.90;;;;;;5025473;28;25072;-67
2022/07/24 01:12:16;;;;;;;38.90;26.25;;;19.70;99.90;;;;;;5037063;28;25054;-67
2022/07/24 01:14:42;;;;;;;34.35;26.08;;;19.80;99.90;;;;;;5029594;28;25072;-67
2022/07/24 01:17:07;;;;;;;34.80;26.95;;;19.70;99.90;;;;;;5026035;28;25073;-66
2022/07/24 01:19:33;;;;;;;39.83;27.38;;;19.70;99.90;;;;;;5024675;28;25114;-67
2022/07/24 01:21:58;;;;;;;39.42;27.08;;;19.70;99.90;;;;;;5026210;28;25174;-66
2022/07/24 01:24:24;;;;;;;43.22;28.75;;;19.60;99.90;;;;;;5025311;28;25083;-67
2022/07/24 01:26:50;;;;;;;38.65;27.73;;;19.70;99.90;;;;;;5025065;28;25068;-68
2022/07/24 01:29:16;;;;;;;36.80;27.80;;;19.70;99.90;;;;;;5025951;28;25111;-68
2022/07/24 01:31:41;;;;;;;40.05;26.75;;;19.70;99.90;;;;;;5023564;28;25098;-65
2022/07/24 01:34:07;;;;;;;38.88;27.60;;;19.70;99.90;;;;;;5026893;28;25111;-67
2022/07/24 01:36:32;;;;;;;35.80;26.63;;;19.70;99.90;;;;;;5025042;28;25061;-67
2022/07/24 01:38:58;;;;;;;42.42;26.50;;;19.70;99.90;;;;;;5025251;28;25133;-68
2022/07/24 01:41:24;;;;;;;37.13;27.90;;;19.80;99.90;;;;;;5025104;28;25065;-67
2022/07/24 01:43:49;;;;;;;38.30;25.88;;;19.70;99.90;;;;;;5025701;28;25062;-66
2022/07/24 01:46:15;;;;;;;36.65;25.88;;;19.70;99.90;;;;;;5030244;28;25117;-66
2022/07/24 01:48:44;;;;;;;33.78;25.42;;;19.70;99.90;;;;;;5030168;28;25090;-66
2022/07/24 01:51:10;;;;;;;34.97;25.85;;;19.70;99.90;;;;;;5029456;28;25067;-67
2022/07/24 01:53:36;;;;;;;34.60;24.70;;;19.70;99.90;;;;;;5028084;28;25121;-66
2022/07/24 01:56:01;;;;;;;35.17;25.23;;;19.70;99.90;;;;;;5026747;28;25142;-66
2022/07/24 01:58:27;;;;;;;35.33;23.90;;;19.70;99.90;;;;;;5037622;28;25132;-66
2022/07/24 02:00:53;;;;;;;26.10;21.58;;;19.70;99.90;;;;;;5018067;28;25064;-66
2022/07/24 02:03:19;;;;;;;30.02;21.98;;;19.70;99.90;;;;;;5029066;28;25085;-66
2022/07/24 02:05:45;;;;;;;34.60;21.65;;;19.70;99.90;;;;;;5027643;28;25084;-66
2022/07/24 02:08:11;;;;;;;30.65;21.80;;;19.70;99.90;;;;;;5030440;28;25109;-67
2022/07/24 02:10:37;;;;;;;29.75;19.88;;;19.70;99.90;;;;;;5029726;28;25146;-68
2022/07/24 02:13:03;;;;;;;30.75;19.67;;;19.70;99.90;;;;;;5029144;28;25130;-66
2022/07/24 02:15:28;;;;;;;33.38;18.52;;;19.70;99.90;;;;;;5029712;28;25071;-68
2022/07/24 02:17:57;;;;;;;29.08;19.50;;;19.80;99.90;;;;;;5029634;28;25132;-66
2022/07/24 02:20:24;;;;;;;29.65;17.75;;;19.70;99.90;;;;;;5027338;28;25073;-67
2022/07/24 02:22:50;;;;;;;26.00;18.05;;;19.70;99.90;;;;;;5028140;28;25081;-67
2022/07/24 02:25:16;;;;;;;31.67;17.85;;;19.70;99.90;;;;;;5027005;28;25056;-67
2022/07/24 02:27:41;;;;;;;26.75;17.13;;;19.70;99.90;;;;;;5022311;28;25153;-67
2022/07/24 02:30:11;;;;;;;24.38;16.10;;;19.60;99.90;;;;;;5023164;28;25084;-67
2022/07/24 02:32:36;;;;;;;28.48;16.08;;;19.60;99.90;;;;;;5024634;28;25066;-65
2022/07/24 02:35:02;;;;;;;21.65;15.45;;;19.60;99.90;;;;;;5025110;28;25079;-67
2022/07/24 02:37:28;;;;;;;25.25;15.15;;;19.60;99.90;;;;;;5025215;28;25128;-69
2022/07/24 02:39:53;;;;;;;23.60;16.40;;;19.60;99.90;;;;;;5033837;28;25087;-68
2022/07/24 02:42:19;;;;;;;21.60;14.82;;;19.60;99.90;;;;;;5026613;28;25090;-65
2022/07/24 02:44:44;;;;;;;23.10;13.93;;;19.60;99.90;;;;;;5029702;28;25057;-66
2022/07/24 02:47:10;;;;;;;22.77;14.73;;;19.60;99.90;;;;;;5040510;28;25157;-66
2022/07/24 02:49:36;;;;;;;18.25;12.90;;;19.50;99.90;;;;;;5027589;28;25106;-67
2022/07/24 02:52:02;;;;;;;22.05;13.40;;;19.60;99.90;;;;;;5022194;28;25138;-66
2022/07/24 02:54:28;;;;;;;18.90;13.55;;;19.60;99.90;;;;;;5024011;28;25112;-67
2022/07/24 02:56:53;;;;;;;19.88;12.73;;;19.50;99.90;;;;;;5036859;28;25119;-67
2022/07/24 02:59:19;;;;;;;16.92;12.35;;;19.40;99.90;;;;;;5025834;28;25070;-67
2022/07/24 03:01:45;;;;;;;18.23;11.55;;;19.30;99.90;;;;;;5026219;28;25057;-66
2022/07/24 03:04:10;;;;;;;17.45;12.05;;;19.40;99.90;;;;;;5027038;28;25140;-67
2022/07/24 03:06:36;;;;;;;17.95;11.93;;;19.30;99.90;;;;;;5036319;28;25133;-65
2022/07/24 03:09:02;;;;;;;19.25;11.85;;;19.30;99.90;;;;;;5029183;28;25078;-66
2022/07/24 03:11:28;;;;;;;20.45;11.32;;;19.20;99.90;;;;;;5032213;28;25063;-66
2022/07/24 03:13:53;;;;;;;17.67;10.18;;;19.10;99.90;;;;;;5027875;28;25055;-65
2022/07/24 03:16:19;;;;;;;17.00;11.52;;;19.10;99.90;;;;;;5028932;28;25077;-67
2022/07/24 03:18:50;;;;;;;16.85;10.88;;;19.10;99.90;;;;;;5028884;28;25065;-67
2022/07/24 03:21:17;;;;;;;13.73;10.43;;;19.00;99.90;;;;;;5035001;28;25058;-66
2022/07/24 03:23:43;;;;;;;21.52;11.82;;;19.00;99.90;;;;;;5029530;28;25115;-68
2022/07/24 03:26:08;;;;;;;18.88;10.43;;;19.00;99.90;;;;;;5031147;28;25076;-67
2022/07/24 03:28:34;;;;;;;13.23;9.57;;;18.90;99.90;;;;;;5021444;28;25074;-65
2022/07/24 03:31:00;;;;;;;18.60;10.70;;;18.90;99.90;;;;;;5020619;28;25103;-67
2022/07/24 03:33:27;;;;;;;15.50;9.65;;;19.00;99.90;;;;;;5028752;28;25084;-66
2022/07/24 03:35:53;;;;;;;16.70;10.32;;;19.00;99.90;;;;;;5028753;28;25067;-66
2022/07/24 03:38:19;;;;;;;14.25;9.75;;;18.90;99.90;;;;;;5028493;28;25083;-66
2022/07/24 03:40:45;;;;;;;16.83;10.02;;;18.90;99.90;;;;;;5023278;28;25143;-66
2022/07/24 03:43:10;;;;;;;16.75;9.80;;;18.80;99.90;;;;;;5025834;28;25072;-66
2022/07/24 03:45:36;;;;;;;16.55;9.95;;;18.90;99.90;;;;;;5024862;28;25053;-67
2022/07/24 03:48:02;;;;;;;14.63;9.60;;;18.80;99.90;;;;;;5026797;28;25075;-66
2022/07/24 03:50:28;;;;;;;12.77;10.05;;;18.80;99.90;;;;;;5028017;28;25152;-66
2022/07/24 03:52:53;;;;;;;14.40;10.32;;;18.80;99.90;;;;;;5030733;28;25051;-66
2022/07/24 03:55:19;;;;;;;12.25;9.27;;;18.80;99.90;;;;;;5035466;28;25149;-66
2022/07/24 03:57:44;;;;;;;15.13;9.70;;;18.70;99.90;;;;;;5025022;28;25156;-66
2022/07/24 04:00:11;;;;;;;13.20;8.93;;;18.70;99.90;;;;;;5026578;28;25047;-67
2022/07/24 04:02:36;;;;;;;13.73;9.45;;;18.80;99.90;;;;;;5021599;28;25068;-66
2022/07/24 04:05:02;;;;;;;14.00;9.10;;;18.80;99.90;;;;;;5027144;28;25061;-66
2022/07/24 04:07:28;;;;;;;13.52;8.18;;;18.80;99.90;;;;;;5023893;28;25068;-67
2022/07/24 04:09:53;;;;;;;16.20;9.32;;;18.70;99.90;;;;;;5027480;28;25057;-66
2022/07/24 04:12:20;;;;;;;9.02;7.95;;;18.70;99.90;;;;;;5026052;28;25128;-66
2022/07/24 04:14:45;;;;;;;10.35;7.78;;;18.70;99.90;;;;;;5024323;28;25132;-66
2022/07/24 04:17:11;;;;;;;12.50;8.13;;;18.70;99.90;;;;;;5027344;28;25132;-66
2022/07/24 04:19:36;;;;;;;10.98;7.95;;;18.60;99.90;;;;;;5034964;28;25119;-66
2022/07/24 04:22:02;;;;;;;15.05;8.40;;;18.50;99.90;;;;;;5038324;28;25066;-66
2022/07/24 04:24:28;;;;;;;12.35;7.95;;;18.50;99.90;;;;;;5023212;28;25082;-65
2022/07/24 04:26:54;;;;;;;13.20;8.23;;;18.40;99.90;;;;;;5025377;28;25054;-67
2022/07/24 04:29:19;;;;;;;18.50;8.98;;;18.50;99.90;;;;;;5025268;28;25065;-67
2022/07/24 04:31:45;;;;;;;12.73;8.35;;;18.50;99.90;;;;;;5025473;28;25071;-67
2022/07/24 04:34:10;;;;;;;10.23;7.78;;;18.50;99.90;;;;;;5022534;28;25141;-68
2022/07/24 04:36:36;;;;;;;10.23;8.23;;;18.50;99.90;;;;;;5025759;28;25079;-65
2022/07/24 04:39:02;;;;;;;12.30;9.00;;;18.60;99.90;;;;;;5018232;28;25157;-66
2022/07/24 04:41:27;;;;;;;13.15;8.68;;;18.70;99.90;;;;;;5027124;28;25064;-67
2022/07/24 04:43:53;;;;;;;12.77;8.88;;;18.60;99.90;;;;;;5027594;28;25140;-67
2022/07/24 04:46:18;;;;;;;14.98;10.15;;;18.70;99.90;;;;;;5033390;28;25074;-65
2022/07/24 04:48:44;;;;;;;14.88;9.35;;;18.70;99.90;;;;;;5029277;28;25172;-67
2022/07/24 04:51:10;;;;;;;17.70;9.73;;;18.80;99.90;;;;;;5037628;28;25079;-67
2022/07/24 04:53:35;;;;;;;15.02;9.90;;;18.80;99.90;;;;;;5027507;28;25065;-68
2022/07/24 04:56:01;;;;;;;13.70;9.10;;;18.70;99.90;;;;;;5023256;28;25101;-65
2022/07/24 04:58:27;;;;;;;14.15;8.52;;;18.70;99.90;;;;;;5026598;28;25071;-66
2022/07/24 05:00:53;;;;;;;13.50;9.13;;;18.70;99.90;;;;;;5027044;28;25110;-67
2022/07/24 05:03:18;;;;;;;14.68;8.23;;;18.80;99.90;;;;;;5029875;28;25153;-68
2022/07/24 05:05:44;;;;;;;15.70;8.50;;;18.90;99.90;;;;;;5032914;28;25069;-69
2022/07/24 05:08:10;;;;;;;11.00;8.25;;;18.90;99.90;;;;;;5021312;28;25048;-67
2022/07/24 05:10:35;;;;;;;11.82;8.55;;;18.90;99.90;;;;;;5023680;28;25068;-65
2022/07/24 05:13:01;;;;;;;15.57;9.82;;;19.00;99.90;;;;;;5025204;28;25122;-67
2022/07/24 05:15:26;;;;;;;17.25;11.45;;;19.00;99.90;;;;;;5025660;28;25060;-66
2022/07/24 05:17:52;;;;;;;14.93;11.77;;;19.00;99.90;;;;;;5031540;28;25093;-67
2022/07/24 05:20:18;;;;;;;22.60;14.23;;;19.10;99.90;;;;;;5026038;28;25092;-68
2022/07/24 05:22:44;;;;;;;20.85;16.58;;;19.20;99.90;;;;;;5023131;28;25115;-66
2022/07/24 05:25:09;;;;;;;26.92;17.92;;;19.30;99.90;;;;;;5017356;28;25087;-67
2022/07/24 05:27:35;;;;;;;25.42;18.15;;;19.30;99.90;;;;;;5024315;28;25097;-66
2022/07/24 05:30:01;;;;;;;25.67;19.00;;;19.40;99.90;;;;;;5032078;28;25160;-67
2022/07/24 05:32:26;;;;;;;27.48;20.17;;;19.40;99.90;;;;;;5026827;28;25158;-66
2022/07/24 05:34:52;;;;;;;26.45;18.15;;;19.40;99.90;;;;;;5026966;28;25073;-67
2022/07/24 05:37:17;;;;;;;28.52;19.83;;;19.30;99.90;;;;;;5041357;28;25054;-66
2022/07/24 05:39:43;;;;;;;23.83;19.20;;;19.40;99.90;;;;;;5028976;28;25135;-66
2022/07/24 05:42:08;;;;;;;25.70;18.52;;;19.50;99.90;;;;;;5025825;28;25058;-66
2022/07/24 05:44:34;;;;;;;24.65;16.73;;;19.40;99.90;;;;;;5023650;28;25066;-66
2022/07/24 05:46:59;;;;;;;24.85;16.73;;;19.50;99.90;;;;;;5027836;28;25159;-67
2022/07/24 05:49:25;;;;;;;22.25;15.20;;;19.50;99.90;;;;;;5017011;28;25080;-67
2022/07/24 05:51:51;;;;;;;19.25;14.02;;;19.50;99.90;;;;;;5034997;28;25126;-64
2022/07/24 05:54:16;;;;;;;22.42;13.40;;;19.50;99.90;;;;;;5032676;28;25073;-67
2022/07/24 05:56:42;;;;;;;17.23;11.50;;;19.50;99.90;;;;;;5038147;28;25070;-67
2022/07/24 05:59:07;;;;;;;11.98;8.38;;;19.60;99.90;;;;;;5025642;28;25076;-67
2022/07/24 06:01:33;;;;;;;11.48;7.57;;;19.60;99.90;;;;;;5023682;28;25056;-67
2022/07/24 06:03:59;;;;;;;11.45;7.38;;;19.60;99.90;;;;;;5023153;28;25153;-67
2022/07/24 06:06:24;;;;;;;9.57;6.35;;;19.60;99.90;;;;;;5025957;28;25148;-68
2022/07/24 06:08:50;;;;;;;7.82;6.28;;;19.60;99.90;;;;;;5009177;28;25090;-68
2022/07/24 06:11:17;;;;;;;10.98;6.28;;;19.70;99.90;;;;;;5010338;28;25095;-67
2022/07/24 06:13:43;;;;;;;10.43;6.25;;;19.90;99.90;;;;;;5012509;28;24989;-68
2022/07/24 06:16:08;;;;;;;8.98;5.88;;;20.10;99.90;;;;;;5014568;28;25157;-69
2022/07/24 06:18:34;;;;;;;11.15;6.97;;;20.30;99.90;;;;;;5016962;28;25071;-67
2022/07/24 06:21:00;;;;;;;9.13;5.80;;;20.50;99.90;;;;;;5009845;28;25091;-69
2022/07/24 06:23:25;;;;;;;8.38;6.30;;;20.70;99.90;;;;;;5010735;28;25062;-67
2022/07/24 06:25:51;;;;;;;6.72;4.97;;;21.00;99.90;;;;;;5012868;28;25071;-67
2022/07/24 06:28:17;;;;;;;8.27;6.00;;;21.10;99.90;;;;;;5023046;28;25061;-68
2022/07/24 06:30:42;;;;;;;9.30;6.00;;;21.30;99.90;;;;;;5020547;28;25161;-68
2022/07/24 06:33:08;;;;;;;8.35;6.18;;;21.60;99.90;;;;;;5025064;28;25078;-68
2022/07/24 06:35:33;;;;;;;7.93;6.75;;;21.70;99.90;;;;;;5019799;28;25106;-67
2022/07/24 06:38:00;;;;;;;12.65;6.68;;;21.60;99.90;;;;;;5024180;28;25106;-69
2022/07/24 06:40:26;;;;;;;9.50;6.05;;;21.30;99.90;;;;;;5021400;28;25062;-67
2022/07/24 06:42:52;;;;;;;10.32;5.75;;;21.70;99.90;;;;;;5018791;28;25118;-67
2022/07/24 06:45:18;;;;;;;8.27;5.20;;;22.10;99.90;;;;;;5009104;28;25070;-68
2022/07/24 06:47:44;;;;;;;10.15;6.35;;;22.40;99.90;;;;;;5019056;28;25073;-68
2022/07/24 06:50:11;;;;;;;9.77;6.32;;;22.40;99.90;;;;;;5012143;28;25105;-68
2022/07/24 06:52:37;;;;;;;11.82;5.38;;;22.20;99.90;;;;;;5012578;28;25140;-66
2022/07/24 06:55:03;;;;;;;9.57;5.60;;;22.20;99.90;;;;;;5013978;28;25082;-70
2022/07/24 06:57:28;;;;;;;6.53;5.28;;;22.20;99.90;;;;;;5012065;28;25082;-71
2022/07/24 06:59:54;;;;;;;7.10;5.00;;;22.20;99.90;;;;;;5021277;28;25092;-69
2022/07/24 07:02:21;;;;;;;6.32;5.20;;;22.50;99.90;;;;;;5018413;28;25072;-70
2022/07/24 07:04:47;;;;;;;6.82;5.50;;;22.80;99.90;;;;;;5018712;28;25062;-69
2022/07/24 07:07:14;;;;;;;11.98;5.32;;;23.10;99.90;;;;;;5018922;28;25073;-68
2022/07/24 07:09:39;;;;;;;5.70;4.13;;;22.80;99.90;;;;;;5021330;28;25078;-68
2022/07/24 07:12:05;;;;;;;5.47;3.90;;;22.30;99.90;;;;;;5022619;28;25075;-69
2022/07/24 07:14:31;;;;;;;6.13;3.70;;;22.30;99.90;;;;;;5013071;28;24818;-69
2022/07/24 07:16:56;;;;;;;6.10;3.13;;;22.40;99.90;;;;;;5014886;28;25078;-69
2022/07/24 07:19:22;;;;;;;6.63;3.88;;;22.60;99.90;;;;;;5022560;28;25061;-68
2022/07/24 07:21:48;;;;;;;6.43;4.13;;;22.60;99.90;;;;;;5027531;28;25145;-68
2022/07/24 07:24:13;;;;;;;5.05;4.63;;;22.50;99.90;;;;;;5022910;28;25100;-69
2022/07/24 07:26:39;;;;;;;5.72;4.50;;;22.50;99.90;;;;;;5017580;28;25053;-69
2022/07/24 07:29:04;;;;;;;10.00;4.43;;;22.70;99.90;;;;;;5028256;28;25556;-69
2022/07/24 07:31:30;;;;;;;6.13;4.13;;;22.70;99.90;;;;;;5021352;28;25081;-69
2022/07/24 07:33:57;;;;;;;4.40;3.85;;;22.50;99.90;;;;;;5024839;28;25111;-67
2022/07/24 07:36:22;;;;;;;5.43;3.75;;;22.80;99.90;;;;;;5021418;28;25119;-69
2022/07/24 07:38:48;;;;;;;8.10;4.68;;;23.10;99.90;;;;;;5025976;28;25062;-67
2022/07/24 07:41:13;;;;;;;10.30;4.45;;;23.00;99.90;;;;;;5026638;28;25090;-69
2022/07/24 07:43:39;;;;;;;5.40;4.47;;;22.90;99.90;;;;;;5025426;28;25069;-68
2022/07/24 07:46:05;;;;;;;4.78;3.88;;;23.00;99.90;;;;;;5038773;28;25078;-69
2022/07/24 07:48:31;;;;;;;11.00;4.25;;;23.10;99.90;;;;;;5034321;28;25086;-69
2022/07/24 07:50:57;;;;;;;4.90;3.95;;;23.30;99.90;;;;;;5027079;28;25048;-70
2022/07/24 07:53:23;;;;;;;5.97;4.00;;;23.70;99.90;;;;;;5018077;28;25074;-68
2022/07/24 07:55:51;;;;;;;7.97;4.10;;;23.80;99.90;;;;;;5025463;28;25067;-68
2022/07/24 07:58:17;;;;;;;5.50;4.10;;;23.70;99.90;;;;;;5028417;28;25092;-70
2022/07/24 08:00:43;;;;;;;6.30;3.97;;;23.80;99.90;;;;;;5028600;28;25099;-70
2022/07/24 08:03:08;;;;;;;6.10;4.07;;;24.10;99.90;;;;;;5022927;28;25094;-69
2022/07/24 08:05:34;;;;;;;9.38;4.25;;;24.40;99.90;;;;;;5022144;28;25160;-70
2022/07/24 08:08:00;;;;;;;7.85;3.88;;;24.30;99.90;;;;;;5022789;28;25058;-69
2022/07/24 08:10:25;;;;;;;4.68;3.72;;;24.30;99.90;;;;;;5029922;28;25080;-69
2022/07/24 08:12:51;;;;;;;5.55;4.03;;;24.20;99.90;;;;;;5015305;28;25064;-68
2022/07/24 08:15:17;;;;;;;7.50;3.92;;;24.40;99.90;;;;;;5020634;28;25062;-68
2022/07/24 08:17:43;;;;;;;8.27;3.67;;;24.30;99.90;;;;;;5020109;28;25085;-72
2022/07/24 08:20:09;;;;;;;4.18;2.70;;;24.40;99.90;;;;;;5021963;28;25069;-68
2022/07/24 08:22:34;;;;;;;3.80;3.25;;;24.90;99.90;;;;;;5022049;28;25114;-69
2022/07/24 08:25:00;;;;;;;4.32;2.85;;;24.80;99.90;;;;;;5028708;28;25107;-68
2022/07/24 08:27:26;;;;;;;3.67;2.28;;;24.80;99.90;;;;;;5027470;28;25157;-70
2022/07/24 08:29:51;;;;;;;5.03;2.97;;;25.20;99.90;;;;;;5028547;28;25069;-70
2022/07/24 08:32:17;;;;;;;4.55;2.85;;;25.40;99.90;;;;;;5024506;28;25106;-70
2022/07/24 08:34:42;;;;;;;3.42;2.58;;;25.30;99.90;;;;;;5028506;28;25077;-69
2022/07/24 08:37:08;;;;;;;4.35;2.58;;;25.50;99.90;;;;;;5034806;28;25053;-71
2022/07/24 08:39:33;;;;;;;4.85;2.80;;;25.80;99.90;;;;;;5029138;28;25073;-70
2022/07/24 08:41:59;;;;;;;5.10;2.70;;;25.70;99.90;;;;;;5026844;28;25070;-67
2022/07/24 08:44:24;;;;;;;6.03;3.35;;;25.70;99.90;;;;;;5012273;28;25109;-67
2022/07/24 08:46:53;;;;;;;3.60;2.72;;;25.50;99.90;;;;;;5026165;28;25071;-68
2022/07/24 08:49:21;;;;;;;3.05;2.63;;;25.50;99.90;;;;;;5022117;28;25081;-71
2022/07/24 08:51:48;;;;;;;3.00;2.70;;;25.40;99.90;;;;;;5025239;28;25053;-68
2022/07/24 08:54:14;;;;;;;3.05;2.70;;;25.40;99.90;;;;;;5035941;28;25103;-68
2022/07/24 08:56:40;;;;;;;4.70;3.13;;;25.40;99.90;;;;;;5036242;28;25131;-69
2022/07/24 08:59:18;;;;;;;3.20;2.90;;;25.30;99.90;;;;;;5025758;28;25090;-70
2022/07/24 09:01:44;;;;;;;3.70;2.75;;;25.50;99.90;;;;;;5031069;28;25144;-67
2022/07/24 09:04:35;;;;;;;4.18;2.60;;;26.00;99.90;;;;;;5027012;28;25073;-69
2022/07/24 09:07:10;;;;;;;4.95;2.35;;;25.90;99.90;;;;;;5027124;28;25209;-70
2022/07/24 09:09:37;;;;;;;2.67;2.40;;;26.20;99.90;;;;;;5016640;28;25079;-69
2022/07/24 09:12:07;;;;;;;2.70;2.50;;;26.00;99.90;;;;;;5016812;28;25065;-70
2022/07/24 09:14:34;;;;;;;3.63;2.72;;;25.80;99.90;;;;;;5018869;28;25093;-69
2022/07/24 09:17:11;;;;;;;2.50;2.30;;;25.80;99.90;;;;;;5021020;28;25052;-69
2022/07/24 09:19:57;;;;;;;3.17;2.55;;;26.70;99.90;;;;;;5020830;28;25067;-67
2022/07/24 09:22:36;;;;;;;3.88;2.95;;;26.60;99.90;;;;;;5021218;28;25136;-68
2022/07/24 09:25:17;;;;;;;6.90;2.90;;;26.40;99.90;;;;;;5019058;28;25140;-69
2022/07/24 09:27:53;;;;;;;8.10;2.60;;;26.70;99.90;;;;;;5021361;28;25048;-71
2022/07/24 09:30:33;;;;;;;4.18;2.60;;;27.30;98.60;;;;;;5019219;28;25054;-68
2022/07/24 09:33:04;;;;;;;3.60;2.80;;;27.40;95.90;;;;;;5016903;28;25077;-67
2022/07/24 09:35:37;;;;;;;4.85;2.67;;;27.20;95.50;;;;;;5014243;28;25129;-69
2022/07/24 09:38:04;;;;;;;3.40;2.28;;;27.10;97.70;;;;;;5016275;28;25075;-69
2022/07/24 09:40:49;;;;;;;4.82;2.88;;;27.60;97.50;;;;;;5017274;28;25069;-68
2022/07/24 09:43:30;;;;;;;3.08;2.28;;;27.20;95.50;;;;;;5019951;28;25094;-71
2022/07/24 09:46:09;;;;;;;4.13;2.45;;;26.80;97.50;;;;;;5026103;28;25070;-69
2022/07/24 09:48:38;;;;;;;4.30;2.97;;;27.20;98.20;;;;;;5023898;28;25100;-69
2022/07/24 09:51:15;;;;;;;4.65;2.92;;;27.40;97.30;;;;;;5024950;28;25097;-68
2022/07/24 09:53:43;;;;;;;6.70;2.55;;;27.90;93.60;;;;;;5025194;28;25069;-68
2022/07/24 09:56:16;;;;;;;2.72;2.25;;;28.30;92.70;;;;;;5013364;28;25156;-68
2022/07/24 09:58:44;;;;;;;5.65;2.65;;;28.40;91.30;;;;;;5009487;28;25073;-68
2022/07/24 10:01:11;;;;;;;5.47;2.65;;;28.50;90.00;;;;;;5018904;28;25063;-69
2022/07/24 10:03:40;;;;;;;2.92;2.33;;;27.80;90.40;;;;;;5022516;28;25082;-71
2022/07/24 10:06:15;;;;;;;2.88;2.53;;;27.70;92.50;;;;;;5024126;28;25065;-68
2022/07/24 10:08:42;;;;;;;3.42;2.75;;;27.70;92.80;;;;;;5026266;28;25135;-68
2022/07/24 10:11:09;;;;;;;4.68;2.22;;;28.10;92.60;;;;;;5025465;28;25067;-67
2022/07/24 10:13:35;;;;;;;2.50;2.15;;;28.60;91.50;;;;;;5016303;28;25082;-67
2022/07/24 10:16:13;;;;;;;2.80;2.20;;;29.10;88.50;;;;;;5018430;28;25068;-68
2022/07/24 10:18:45;;;;;;;2.63;2.28;;;29.20;80.20;;;;;;5021407;28;25093;-67
2022/07/24 10:21:16;;;;;;;5.35;2.45;;;29.10;77.30;;;;;;5020405;28;25106;-69
2022/07/24 10:24:12;;;;;;;2.08;1.88;;;28.80;81.40;;;;;;5026859;28;25122;-68
2022/07/24 10:26:48;;;;;;;3.33;2.15;;;28.80;78.50;;;;;;5029079;28;25074;-69
2022/07/24 10:29:22;;;;;;;3.72;2.00;;;28.40;81.10;;;;;;5012521;28;25123;-70
2022/07/24 10:31:50;;;;;;;2.75;2.08;;;28.70;83.70;;;;;;5010594;28;25060;-69
2022/07/24 10:34:38;;;;;;;2.25;2.00;;;29.10;79.20;;;;;;5018536;28;25161;-68
2022/07/24 10:37:20;;;;;;;5.47;1.67;;;29.30;71.10;;;;;;5023025;28;25069;-68
2022/07/24 10:40:02;;;;;;;3.85;2.10;;;29.20;70.50;;;;;;5035319;28;25059;-70
2022/07/24 10:42:27;;;;;;;2.72;2.10;;;29.00;67.50;;;;;;5022628;28;25065;-69
2022/07/24 10:45:17;;;;;;;3.30;2.30;;;28.90;66.00;;;;;;5026443;28;25075;-67
2022/07/24 10:47:42;;;;;;;6.72;2.17;;;28.70;72.20;;;;;;5025985;28;25078;-69
2022/07/24 10:50:08;;;;;;;6.82;1.70;;;29.00;72.00;;;;;;5027453;28;25068;-69
2022/07/24 10:52:36;;;;;;;2.97;1.90;;;29.00;74.00;;;;;;5029589;28;25061;-67
2022/07/24 10:55:34;;;;;;;3.53;2.22;;;29.40;67.00;;;;;;5027272;28;25057;-70
2022/07/24 10:58:01;;;;;;;3.60;2.40;;;29.30;69.20;;;;;;5038815;28;25067;-68
2022/07/24 11:00:35;;;;;;;2.05;1.95;;;29.40;71.30;;;;;;5024375;28;25067;-68
2022/07/24 11:03:21;;;;;;;2.22;1.88;;;29.60;67.90;;;;;;5029593;28;25049;-68
2022/07/24 11:06:05;;;;;;;4.28;1.95;;;29.50;65.10;;;;;;5024957;28;25066;-69
2022/07/24 11:08:36;;;;;;;3.33;2.25;;;29.50;69.90;;;;;;5028990;28;25121;-69
2022/07/24 11:11:09;;;;;;;3.45;2.10;;;29.80;67.70;;;;;;5026062;28;25145;-70
2022/07/24 11:13:37;;;;;;;3.38;2.17;;;29.80;64.00;;;;;;5023127;28;25147;-69
2022/07/24 11:16:15;;;;;;;2.90;2.00;;;30.00;62.60;;;;;;5023836;28;25106;-68
2022/07/24 11:18:47;;;;;;;2.67;1.83;;;30.10;58.20;;;;;;5027586;28;25065;-69
2022/07/24 11:21:26;;;;;;;;;;;29.90;59.50;;;;;;5023290;28;25089;-69
2022/07/24 11:24:21;;;;;;;2.83;2.10;;;29.80;62.80;;;;;;5026344;28;25057;-67
2022/07/24 11:26:55;;;;;;;3.25;1.60;;;30.10;60.80;;;;;;5023010;28;25062;-66
2022/07/24 11:29:29;;;;;;;2.80;2.20;;;30.00;57.40;;;;;;5023731;28;25094;-68
2022/07/24 11:32:02;;;;;;;2.95;1.90;;;29.80;64.60;;;;;;5022049;28;25077;-69
2022/07/24 11:34:28;;;;;;;4.38;2.40;;;30.00;62.10;;;;;;5030497;28;25073;-70
2022/07/24 11:36:55;;;;;;;4.93;2.00;;;30.20;58.70;;;;;;5032489;28;25067;-68
2022/07/24 11:39:32;;;;;;;3.58;2.22;;;30.10;59.60;;;;;;5023433;28;25075;-68
2022/07/24 11:42:07;;;;;;;3.10;2.20;;;30.10;59.30;;;;;;5025581;28;25081;-71
2022/07/24 11:44:42;;;;;;;7.65;2.63;;;30.40;57.10;;;;;;5027905;28;25073;-68
2022/07/24 11:47:23;;;;;;;6.40;2.50;;;29.90;61.60;;;;;;5027889;28;25122;-67
2022/07/24 11:49:52;;;;;;;2.30;2.10;;;29.80;69.90;;;;;;5027075;28;25062;-70
2022/07/24 11:52:22;;;;;;;2.63;2.20;;;30.10;65.50;;;;;;5033389;28;25138;-68
2022/07/24 11:54:50;;;;;;;2.80;1.98;;;30.30;64.00;;;;;;5023366;28;25072;-68
2022/07/24 11:57:21;;;;;;;2.55;2.33;;;30.30;62.20;;;;;;5029875;28;25047;-68
2022/07/24 11:59:48;;;;;;;3.22;1.98;;;30.40;61.00;;;;;;5028071;28;25136;-67
2022/07/24 12:02:15;;;;;;;3.88;2.20;;;30.20;65.30;;;;;;5015003;28;25064;-68
2022/07/24 12:04:41;;;;;;;8.50;2.00;;;30.40;63.90;;;;;;5030436;28;25080;-68
2022/07/24 12:07:13;;;;;;;3.75;2.50;;;30.80;56.20;;;;;;5036901;28;25074;-67
2022/07/24 12:09:49;;;;;;;4.07;2.50;;;30.90;53.60;;;;;;5030354;28;25131;-67
2022/07/24 12:12:42;;;;;;;2.88;2.08;;;30.50;52.70;;;;;;5037029;28;25077;-68
2022/07/24 12:15:13;;;;;;;4.38;2.65;;;30.70;65.80;;;;;;5031965;28;25117;-71
2022/07/24 12:18:00;;;;;;;3.10;2.33;;;31.20;58.60;;;;;;5033700;28;25070;-67
2022/07/24 12:20:31;;;;;;;4.53;2.30;;;31.20;51.20;;;;;;5038035;28;25063;-68
2022/07/24 12:22:59;;;;;;;2.50;2.30;;;31.00;53.20;;;;;;5029618;28;25062;-66
2022/07/24 12:25:25;;;;;;;5.55;2.45;;;31.10;50.10;;;;;;5031685;28;25096;-67
2022/07/24 12:28:00;;;;;;;3.72;2.00;;;31.10;51.20;;;;;;5027500;28;25134;-68
2022/07/24 12:30:28;;;;;;;2.80;2.22;;;31.10;58.50;;;;;;5037746;28;25077;-68
2022/07/24 12:32:55;;;;;;;4.65;2.67;;;31.30;57.10;;;;;;5019569;28;25070;-67
2022/07/24 12:35:21;;;;;;;3.72;2.30;;;31.20;51.60;;;;;;5025261;28;25070;-68
2022/07/24 12:37:46;;;;;;;2.33;2.10;;;31.40;53.30;;;;;;5026705;28;25070;-67
2022/07/24 12:40:33;;;;;;;4.68;2.95;;;31.30;50.00;;;;;;5034007;28;25069;-69
2022/07/24 12:43:10;;;;;;;2.90;2.55;;;31.10;51.20;;;;;;5020655;28;25074;-69